< < Back
Terminal Aerodrome Forecast


Current Version              Previous Versions:   1  2  3  4  5  6  7  8  9  

Terminal Aerodrome Forecast

273
FTUS42 KMLB 301733
TAFDAB
TAF
KDAB 301733Z 3018/3118 08010KT P6SM FEW045 SCT250
     FM310100 17003KT P6SM FEW030 SCT250
     FM311500 20004KT P6SM FEW035=



Latest METAR

956
SAUS80 KWBC 302000
MTRDAB
METAR KDAB 301953Z 09009KT 10SM FEW040TCU FEW100 SCT250 33/23 A3002 RMK
AO2 SLP163 TCU SW CB DSNT S SW-NW T03280233 $


USA.gov is the U.S. government's official web portal to all federal, state and local government web resources and services.